sensor_id;sensor_type;location;lat;lon;timestamp;pressure;altitude;pressure_sealevel;temperature;humidity
63033;BME280;49121;38.932;-9.018;2023-02-02T00:01:44;111992.50;;;-145.11;80.85
63033;BME280;49121;38.932;-9.018;2023-02-02T00:03:45;111992.50;;;-145.11;81.04
63033;BME280;49121;38.932;-9.018;2023-02-02T00:05:48;111992.50;;;-145.11;81.49
63033;BME280;49121;38.932;-9.018;2023-02-02T00:07:52;111992.50;;;-145.11;81.92
63033;BME280;49121;38.932;-9.018;2023-02-02T00:09:52;111992.50;;;-145.11;81.95
63033;BME280;49121;38.932;-9.018;2023-02-02T00:11:54;111992.50;;;-145.11;82.22
63033;BME280;49121;38.932;-9.018;2023-02-02T00:13:55;111992.50;;;-145.11;82.17
63033;BME280;49121;38.932;-9.018;2023-02-02T00:15:55;111992.50;;;-145.11;82.16
63033;BME280;49121;38.932;-9.018;2023-02-02T00:17:56;111992.50;;;-145.11;82.66
63033;BME280;49121;38.932;-9.018;2023-02-02T00:22:59;111992.50;;;-145.11;82.48
63033;BME280;49121;38.932;-9.018;2023-02-02T00:25:00;111992.50;;;-145.11;82.90
63033;BME280;49121;38.932;-9.018;2023-02-02T00:27:01;111992.50;;;-145.11;83.35
63033;BME280;49121;38.932;-9.018;2023-02-02T00:34:22;111992.50;;;-145.11;83.41
63033;BME280;49121;38.932;-9.018;2023-02-02T00:36:23;111992.50;;;-145.11;82.99
63033;BME280;49121;38.932;-9.018;2023-02-02T00:38:23;111992.50;;;-145.11;83.39
63033;BME280;49121;38.932;-9.018;2023-02-02T00:40:24;111992.50;;;-145.11;83.23
63033;BME280;49121;38.932;-9.018;2023-02-02T00:42:24;111992.50;;;-145.11;83.51
63033;BME280;49121;38.932;-9.018;2023-02-02T00:44:25;111992.50;;;-145.11;83.18
63033;BME280;49121;38.932;-9.018;2023-02-02T00:47:03;111992.50;;;-145.11;84.24
63033;BME280;49121;38.932;-9.018;2023-02-02T00:49:03;111992.50;;;-145.11;84.07
63033;BME280;49121;38.932;-9.018;2023-02-02T00:51:04;111992.50;;;-145.11;84.27
63033;BME280;49121;38.932;-9.018;2023-02-02T00:53:24;111992.50;;;-145.11;84.93
63033;BME280;49121;38.932;-9.018;2023-02-02T00:55:30;111992.50;;;-145.11;84.90
63033;BME280;49121;38.932;-9.018;2023-02-02T00:57:31;111992.50;;;-145.11;84.00
63033;BME280;49121;38.932;-9.018;2023-02-02T00:59:34;111992.50;;;-145.11;84.22
63033;BME280;49121;38.932;-9.018;2023-02-02T01:01:35;111992.50;;;-145.11;84.41
63033;BME280;49121;38.932;-9.018;2023-02-02T01:03:36;111992.50;;;-145.11;85.12
63033;BME280;49121;38.932;-9.018;2023-02-02T01:07:57;111992.50;;;-145.11;85.44
63033;BME280;49121;38.932;-9.018;2023-02-02T01:09:58;111992.50;;;-145.11;85.27
63033;BME280;49121;38.932;-9.018;2023-02-02T01:11:58;111992.50;;;-145.11;85.36
63033;BME280;49121;38.932;-9.018;2023-02-02T01:13:59;111992.50;;;-145.11;85.93
63033;BME280;49121;38.932;-9.018;2023-02-02T01:16:01;111992.50;;;-145.11;85.83
63033;BME280;49121;38.932;-9.018;2023-02-02T01:18:02;111992.50;;;-145.11;85.72
63033;BME280;49121;38.932;-9.018;2023-02-02T01:20:04;111992.50;;;-145.11;85.34
63033;BME280;49121;38.932;-9.018;2023-02-02T01:22:06;111992.50;;;-145.11;85.68
63033;BME280;49121;38.932;-9.018;2023-02-02T01:24:07;111992.50;;;-145.11;85.42
63033;BME280;49121;38.932;-9.018;2023-02-02T01:26:10;111992.50;;;-145.11;86.29
63033;BME280;49121;38.932;-9.018;2023-02-02T01:30:30;111992.50;;;-145.11;86.21
63033;BME280;49121;38.932;-9.018;2023-02-02T01:32:31;111992.50;;;-145.11;86.10
63033;BME280;49121;38.932;-9.018;2023-02-02T01:34:32;111992.50;;;-145.11;86.62
63033;BME280;49121;38.932;-9.018;2023-02-02T01:36:33;111992.50;;;-145.11;86.81
63033;BME280;49121;38.932;-9.018;2023-02-02T01:38:33;111992.50;;;-145.11;86.83
63033;BME280;49121;38.932;-9.018;2023-02-02T01:40:55;111992.50;;;-145.11;87.06
63033;BME280;49121;38.932;-9.018;2023-02-02T01:42:56;111992.50;;;-145.11;86.28
63033;BME280;49121;38.932;-9.018;2023-02-02T01:45:20;111992.50;;;-145.11;86.75
63033;BME280;49121;38.932;-9.018;2023-02-02T01:47:25;111992.50;;;-145.11;86.67
63033;BME280;49121;38.932;-9.018;2023-02-02T01:49:26;111992.50;;;-145.11;86.21
63033;BME280;49121;38.932;-9.018;2023-02-02T01:51:34;111992.50;;;-145.11;86.38
63033;BME280;49121;38.932;-9.018;2023-02-02T01:56:21;111992.50;;;-145.11;86.72
63033;BME280;49121;38.932;-9.018;2023-02-02T01:58:42;111992.50;;;-145.11;87.57
63033;BME280;49121;38.932;-9.018;2023-02-02T02:00:44;111992.50;;;-145.11;87.44
63033;BME280;49121;38.932;-9.018;2023-02-02T02:05:34;111992.50;;;-145.11;87.57
63033;BME280;49121;38.932;-9.018;2023-02-02T02:07:37;111992.50;;;-145.11;87.70
63033;BME280;49121;38.932;-9.018;2023-02-02T02:09:39;111992.50;;;-145.11;87.59
63033;BME280;49121;38.932;-9.018;2023-02-02T02:11:40;111992.50;;;-145.11;87.87
63033;BME280;49121;38.932;-9.018;2023-02-02T02:13:40;111992.50;;;-145.11;88.36
63033;BME280;49121;38.932;-9.018;2023-02-02T02:21:34;111992.50;;;-145.11;88.46
63033;BME280;49121;38.932;-9.018;2023-02-02T02:37:57;111992.50;;;-145.11;88.37
63033;BME280;49121;38.932;-9.018;2023-02-02T02:40:21;111992.50;;;-145.11;88.22
63033;BME280;49121;38.932;-9.018;2023-02-02T02:45:21;111992.50;;;-145.11;88.89
63033;BME280;49121;38.932;-9.018;2023-02-02T02:47:24;111992.50;;;-145.11;88.89
63033;BME280;49121;38.932;-9.018;2023-02-02T02:49:24;111992.50;;;-145.11;89.32
63033;BME280;49121;38.932;-9.018;2023-02-02T02:53:55;111992.50;;;-145.11;89.76
63033;BME280;49121;38.932;-9.018;2023-02-02T02:59:00;111992.50;;;-145.11;89.36
63033;BME280;49121;38.932;-9.018;2023-02-02T03:08:42;111992.50;;;-145.11;89.97
63033;BME280;49121;38.932;-9.018;2023-02-02T03:10:45;111992.50;;;-145.11;90.03
63033;BME280;49121;38.932;-9.018;2023-02-02T03:12:48;111992.50;;;-145.11;90.01
63033;BME280;49121;38.932;-9.018;2023-02-02T03:14:49;111992.50;;;-145.11;89.92
63033;BME280;49121;38.932;-9.018;2023-02-02T03:16:51;111992.50;;;-145.11;89.28
63033;BME280;49121;38.932;-9.018;2023-02-02T03:18:53;111992.50;;;-145.11;89.66
63033;BME280;49121;38.932;-9.018;2023-02-02T03:20:55;111992.50;;;-145.11;89.71
63033;BME280;49121;38.932;-9.018;2023-02-02T03:22:56;111992.50;;;-145.11;89.42
63033;BME280;49121;38.932;-9.018;2023-02-02T03:25:15;111992.50;;;-145.11;89.42
63033;BME280;49121;38.932;-9.018;2023-02-02T03:27:21;111992.50;;;-145.11;89.39
63033;BME280;49121;38.932;-9.018;2023-02-02T03:29:22;111992.50;;;-145.11;89.14
63033;BME280;49121;38.932;-9.018;2023-02-02T03:31:25;111992.50;;;-145.11;88.53
63033;BME280;49121;38.932;-9.018;2023-02-02T03:33:27;111992.50;;;-145.11;88.25
63033;BME280;49121;38.932;-9.018;2023-02-02T03:35:29;111992.50;;;-145.11;88.11
63033;BME280;49121;38.932;-9.018;2023-02-02T03:37:30;111992.50;;;-145.11;87.98
63033;BME280;49121;38.932;-9.018;2023-02-02T03:39:31;111992.50;;;-145.11;87.71
63033;BME280;49121;38.932;-9.018;2023-02-02T03:49:05;111992.50;;;-145.11;88.18
63033;BME280;49121;38.932;-9.018;2023-02-02T03:51:18;111992.50;;;-145.11;87.78
63033;BME280;49121;38.932;-9.018;2023-02-02T03:53:19;111992.50;;;-145.11;88.42
63033;BME280;49121;38.932;-9.018;2023-02-02T03:55:38;111992.50;;;-145.11;88.43
63033;BME280;49121;38.932;-9.018;2023-02-02T03:57:59;111992.50;;;-145.11;88.31
63033;BME280;49121;38.932;-9.018;2023-02-02T03:59:59;111992.50;;;-145.11;88.23
63033;BME280;49121;38.932;-9.018;2023-02-02T04:02:00;111992.50;;;-145.11;89.01
63033;BME280;49121;38.932;-9.018;2023-02-02T04:04:00;111992.50;;;-145.11;88.68
63033;BME280;49121;38.932;-9.018;2023-02-02T04:06:01;111992.50;;;-145.11;88.68
63033;BME280;49121;38.932;-9.018;2023-02-02T04:08:02;111992.50;;;-145.11;88.07
63033;BME280;49121;38.932;-9.018;2023-02-02T04:13:00;111992.50;;;-145.11;87.89
63033;BME280;49121;38.932;-9.018;2023-02-02T04:15:01;111992.50;;;-145.11;88.58
63033;BME280;49121;38.932;-9.018;2023-02-02T04:17:07;111992.50;;;-145.11;88.69
63033;BME280;49121;38.932;-9.018;2023-02-02T04:19:07;111992.50;;;-145.11;88.59
63033;BME280;49121;38.932;-9.018;2023-02-02T04:21:08;111992.50;;;-145.11;88.37
63033;BME280;49121;38.932;-9.018;2023-02-02T04:23:09;111992.50;;;-145.11;88.15
63033;BME280;49121;38.932;-9.018;2023-02-02T04:25:10;111992.50;;;-145.11;88.59
63033;BME280;49121;38.932;-9.018;2023-02-02T04:27:10;111992.50;;;-145.11;88.75
63033;BME280;49121;38.932;-9.018;2023-02-02T04:34:30;111992.50;;;-145.11;88.92
63033;BME280;49121;38.932;-9.018;2023-02-02T04:36:31;111992.50;;;-145.11;89.32
63033;BME280;49121;38.932;-9.018;2023-02-02T04:38:31;111992.50;;;-145.11;88.96
63033;BME280;49121;38.932;-9.018;2023-02-02T04:43:33;111992.50;;;-145.11;89.44
63033;BME280;49121;38.932;-9.018;2023-02-02T04:45:34;111992.50;;;-145.11;89.06
63033;BME280;49121;38.932;-9.018;2023-02-02T04:47:35;111992.50;;;-145.11;89.44
63033;BME280;49121;38.932;-9.018;2023-02-02T04:49:35;111992.50;;;-145.11;89.85
63033;BME280;49121;38.932;-9.018;2023-02-02T04:51:37;111992.50;;;-145.11;89.90
63033;BME280;49121;38.932;-9.018;2023-02-02T04:53:39;111992.50;;;-145.11;89.74
63033;BME280;49121;38.932;-9.018;2023-02-02T04:56:10;111992.50;;;-145.11;89.51
63033;BME280;49121;38.932;-9.018;2023-02-02T04:58:11;111992.50;;;-145.11;89.50
63033;BME280;49121;38.932;-9.018;2023-02-02T05:00:13;111992.50;;;-145.11;89.15
63033;BME280;49121;38.932;-9.018;2023-02-02T05:02:14;111992.50;;;-145.11;90.08
63033;BME280;49121;38.932;-9.018;2023-02-02T05:04:15;111992.50;;;-145.11;90.42
63033;BME280;49121;38.932;-9.018;2023-02-02T05:06:16;111992.50;;;-145.11;90.07
63033;BME280;49121;38.932;-9.018;2023-02-02T05:08:18;111992.50;;;-145.11;89.95
63033;BME280;49121;38.932;-9.018;2023-02-02T05:10:24;111992.50;;;-145.11;90.34
63033;BME280;49121;38.932;-9.018;2023-02-02T05:12:25;111992.50;;;-145.11;90.36
63033;BME280;49121;38.932;-9.018;2023-02-02T05:14:25;111992.50;;;-145.11;90.05
63033;BME280;49121;38.932;-9.018;2023-02-02T05:16:26;111992.50;;;-145.11;90.57
63033;BME280;49121;38.932;-9.018;2023-02-02T05:18:28;111992.50;;;-145.11;90.60
63033;BME280;49121;38.932;-9.018;2023-02-02T05:20:30;111992.50;;;-145.11;90.48
63033;BME280;49121;38.932;-9.018;2023-02-02T05:22:31;111992.50;;;-145.11;90.88
63033;BME280;49121;38.932;-9.018;2023-02-02T05:24:32;111992.50;;;-145.11;90.99
63033;BME280;49121;38.932;-9.018;2023-02-02T05:26:32;111992.50;;;-145.11;91.07
63033;BME280;49121;38.932;-9.018;2023-02-02T05:31:28;111992.50;;;-145.11;90.78
63033;BME280;49121;38.932;-9.018;2023-02-02T05:33:30;111992.50;;;-145.11;90.96
63033;BME280;49121;38.932;-9.018;2023-02-02T05:35:31;111992.50;;;-145.11;91.34
63033;BME280;49121;38.932;-9.018;2023-02-02T05:37:50;111992.50;;;-145.11;91.58
63033;BME280;49121;38.932;-9.018;2023-02-02T05:39:51;111992.50;;;-145.11;91.34
63033;BME280;49121;38.932;-9.018;2023-02-02T05:41:52;111992.50;;;-145.11;91.38
63033;BME280;49121;38.932;-9.018;2023-02-02T05:46:13;111992.50;;;-145.11;92.34
63033;BME280;49121;38.932;-9.018;2023-02-02T05:48:13;111992.50;;;-145.11;91.72
63033;BME280;49121;38.932;-9.018;2023-02-02T05:50:15;111992.50;;;-145.11;91.23
63033;BME280;49121;38.932;-9.018;2023-02-02T05:52:20;111992.50;;;-145.11;90.50
63033;BME280;49121;38.932;-9.018;2023-02-02T05:54:21;111992.50;;;-145.11;91.25
63033;BME280;49121;38.932;-9.018;2023-02-02T05:56:22;111992.50;;;-145.11;91.32
63033;BME280;49121;38.932;-9.018;2023-02-02T05:58:42;111992.50;;;-145.11;91.41
63033;BME280;49121;38.932;-9.018;2023-02-02T06:03:21;111992.50;;;-145.11;92.26
63033;BME280;49121;38.932;-9.018;2023-02-02T06:05:23;111992.50;;;-145.11;91.82
63033;BME280;49121;38.932;-9.018;2023-02-02T06:07:25;111992.50;;;-145.11;91.82
63033;BME280;49121;38.932;-9.018;2023-02-02T06:09:25;111992.50;;;-145.11;91.64
63033;BME280;49121;38.932;-9.018;2023-02-02T06:11:26;111992.50;;;-145.11;91.80
63033;BME280;49121;38.932;-9.018;2023-02-02T06:16:05;111992.50;;;-145.11;91.91
63033;BME280;49121;38.932;-9.018;2023-02-02T06:18:09;111992.50;;;-145.11;91.83
63033;BME280;49121;38.932;-9.018;2023-02-02T06:20:11;111992.50;;;-145.11;91.68
63033;BME280;49121;38.932;-9.018;2023-02-02T06:24:31;111992.50;;;-145.11;92.00
63033;BME280;49121;38.932;-9.018;2023-02-02T06:26:32;111992.50;;;-145.11;91.78
63033;BME280;49121;38.932;-9.018;2023-02-02T06:28:33;111992.50;;;-145.11;92.19
63033;BME280;49121;38.932;-9.018;2023-02-02T06:30:33;111992.50;;;-145.11;91.75
63033;BME280;49121;38.932;-9.018;2023-02-02T06:32:34;111992.50;;;-145.11;91.95
63033;BME280;49121;38.932;-9.018;2023-02-02T06:34:34;111992.50;;;-145.11;91.71
63033;BME280;49121;38.932;-9.018;2023-02-02T06:39:14;111992.50;;;-145.11;91.92
63033;BME280;49121;38.932;-9.018;2023-02-02T06:41:15;111992.50;;;-145.11;92.02
63033;BME280;49121;38.932;-9.018;2023-02-02T06:43:15;111992.50;;;-145.11;92.93
63033;BME280;49121;38.932;-9.018;2023-02-02T06:45:16;111992.50;;;-145.11;92.26
63033;BME280;49121;38.932;-9.018;2023-02-02T06:47:16;111992.50;;;-145.11;93.31
63033;BME280;49121;38.932;-9.018;2023-02-02T06:49:17;111992.50;;;-145.11;92.88
63033;BME280;49121;38.932;-9.018;2023-02-02T06:51:37;111992.50;;;-145.11;93.48
63033;BME280;49121;38.932;-9.018;2023-02-02T06:53:38;111992.50;;;-145.11;93.41
63033;BME280;49121;38.932;-9.018;2023-02-02T06:55:39;111992.50;;;-145.11;93.73
63033;BME280;49121;38.932;-9.018;2023-02-02T06:57:39;111992.50;;;-145.11;93.47
63033;BME280;49121;38.932;-9.018;2023-02-02T06:59:40;111992.50;;;-145.11;92.47
63033;BME280;49121;38.932;-9.018;2023-02-02T07:01:49;111992.50;;;-145.11;92.83
63033;BME280;49121;38.932;-9.018;2023-02-02T07:03:50;111992.50;;;-145.11;92.96
63033;BME280;49121;38.932;-9.018;2023-02-02T07:05:50;111992.50;;;-145.11;93.20
63033;BME280;49121;38.932;-9.018;2023-02-02T07:07:51;111992.50;;;-145.11;92.67
63033;BME280;49121;38.932;-9.018;2023-02-02T07:09:52;111992.50;;;-145.11;93.29
63033;BME280;49121;38.932;-9.018;2023-02-02T07:12:29;111992.50;;;-145.11;93.09
63033;BME280;49121;38.932;-9.018;2023-02-02T07:16:49;111992.50;;;-145.11;92.41
63033;BME280;49121;38.932;-9.018;2023-02-02T07:18:53;111992.50;;;-145.11;92.01
63033;BME280;49121;38.932;-9.018;2023-02-02T07:20:54;111992.50;;;-145.11;92.42
63033;BME280;49121;38.932;-9.018;2023-02-02T07:23:15;111992.50;;;-145.11;92.64
63033;BME280;49121;38.932;-9.018;2023-02-02T07:25:17;111992.50;;;-145.11;92.30
63033;BME280;49121;38.932;-9.018;2023-02-02T07:27:18;111992.50;;;-145.11;92.75
63033;BME280;49121;38.932;-9.018;2023-02-02T07:29:18;111992.50;;;-145.11;92.67
63033;BME280;49121;38.932;-9.018;2023-02-02T07:31:24;111992.50;;;-145.11;92.46
63033;BME280;49121;38.932;-9.018;2023-02-02T07:36:03;111992.50;;;-145.11;92.40
63033;BME280;49121;38.932;-9.018;2023-02-02T07:38:04;111992.50;;;-145.11;92.42
63033;BME280;49121;38.932;-9.018;2023-02-02T07:42:24;111992.50;;;-145.11;92.33
63033;BME280;49121;38.932;-9.018;2023-02-02T07:44:25;111992.50;;;-145.11;92.49
63033;BME280;49121;38.932;-9.018;2023-02-02T07:46:25;111992.50;;;-145.11;92.13
63033;BME280;49121;38.932;-9.018;2023-02-02T07:48:26;111992.50;;;-145.11;92.39
63033;BME280;49121;38.932;-9.018;2023-02-02T07:50:28;111992.50;;;-145.11;92.15
63033;BME280;49121;38.932;-9.018;2023-02-02T07:52:29;111992.50;;;-145.11;92.59
63033;BME280;49121;38.932;-9.018;2023-02-02T07:54:30;111992.50;;;-145.11;92.29
63033;BME280;49121;38.932;-9.018;2023-02-02T07:56:32;111992.50;;;-145.11;92.04
63033;BME280;49121;38.932;-9.018;2023-02-02T07:58:32;111992.50;;;-145.11;92.14
63033;BME280;49121;38.932;-9.018;2023-02-02T08:00:33;111992.50;;;-145.11;91.91
63033;BME280;49121;38.932;-9.018;2023-02-02T08:02:34;111992.50;;;-145.11;91.52
63033;BME280;49121;38.932;-9.018;2023-02-02T08:04:34;111992.50;;;-145.11;91.81
63033;BME280;49121;38.932;-9.018;2023-02-02T08:06:38;111992.50;;;-145.11;91.73
63033;BME280;49121;38.932;-9.018;2023-02-02T08:08:39;111992.50;;;-145.11;91.62
63033;BME280;49121;38.932;-9.018;2023-02-02T08:10:46;111992.50;;;-145.11;92.07
63033;BME280;49121;38.932;-9.018;2023-02-02T08:12:47;111992.50;;;-145.11;91.77
63033;BME280;49121;38.932;-9.018;2023-02-02T08:14:48;111992.50;;;-145.11;91.18
63033;BME280;49121;38.932;-9.018;2023-02-02T08:16:49;111992.50;;;-145.11;91.46
63033;BME280;49121;38.932;-9.018;2023-02-02T08:18:50;111992.50;;;-145.11;90.96
63033;BME280;49121;38.932;-9.018;2023-02-02T08:20:51;111992.50;;;-145.11;91.53
63033;BME280;49121;38.932;-9.018;2023-02-02T08:22:52;111992.50;;;-145.11;91.22
63033;BME280;49121;38.932;-9.018;2023-02-02T08:24:54;111992.50;;;-145.11;91.25
63033;BME280;49121;38.932;-9.018;2023-02-02T08:26:54;111992.50;;;-145.11;91.03
63033;BME280;49121;38.932;-9.018;2023-02-02T08:29:04;111992.50;;;-145.11;90.67
63033;BME280;49121;38.932;-9.018;2023-02-02T08:31:15;111992.50;;;-145.11;91.34
63033;BME280;49121;38.932;-9.018;2023-02-02T08:33:16;111992.50;;;-145.11;91.21
63033;BME280;49121;38.932;-9.018;2023-02-02T08:35:16;111992.50;;;-145.11;90.73
63033;BME280;49121;38.932;-9.018;2023-02-02T08:37:18;111992.50;;;-145.11;90.28
63033;BME280;49121;38.932;-9.018;2023-02-02T08:39:19;111992.50;;;-145.11;89.77
63033;BME280;49121;38.932;-9.018;2023-02-02T08:41:22;111992.50;;;-145.11;89.82
63033;BME280;49121;38.932;-9.018;2023-02-02T08:43:23;111992.50;;;-145.11;89.12
63033;BME280;49121;38.932;-9.018;2023-02-02T08:45:24;111992.50;;;-145.11;89.04
63033;BME280;49121;38.932;-9.018;2023-02-02T08:47:55;111992.50;;;-145.11;88.15
63033;BME280;49121;38.932;-9.018;2023-02-02T08:49:56;111992.50;;;-145.11;87.14
63033;BME280;49121;38.932;-9.018;2023-02-02T08:51:57;111992.50;;;-145.11;85.60
63033;BME280;49121;38.932;-9.018;2023-02-02T08:53:57;111992.50;;;-145.11;85.53
63033;BME280;49121;38.932;-9.018;2023-02-02T08:56:02;111992.50;;;-145.11;84.23
63033;BME280;49121;38.932;-9.018;2023-02-02T08:58:04;111992.50;;;-145.11;83.54
63033;BME280;49121;38.932;-9.018;2023-02-02T09:00:05;111992.50;;;-145.11;81.75
63033;BME280;49121;38.932;-9.018;2023-02-02T09:07:06;111992.50;;;-145.11;78.85
63033;BME280;49121;38.932;-9.018;2023-02-02T09:11:27;111992.50;;;-145.11;78.41
63033;BME280;49121;38.932;-9.018;2023-02-02T09:13:28;111992.50;;;-145.11;78.36
63033;BME280;49121;38.932;-9.018;2023-02-02T09:15:29;111992.50;;;-145.11;77.94
63033;BME280;49121;38.932;-9.018;2023-02-02T09:17:30;111992.50;;;-145.11;76.37
63033;BME280;49121;38.932;-9.018;2023-02-02T09:19:31;111992.50;;;-145.11;75.50
63033;BME280;49121;38.932;-9.018;2023-02-02T09:21:33;111992.50;;;-145.11;74.58
63033;BME280;49121;38.932;-9.018;2023-02-02T09:23:55;111992.50;;;-145.11;74.94
63033;BME280;49121;38.932;-9.018;2023-02-02T09:28:54;111992.50;;;-145.11;74.33
63033;BME280;49121;38.932;-9.018;2023-02-02T09:31:00;111992.50;;;-145.11;73.87
63033;BME280;49121;38.932;-9.018;2023-02-02T09:35:21;111992.50;;;-145.11;73.67
63033;BME280;49121;38.932;-9.018;2023-02-02T09:37:32;111992.50;;;-145.11;74.86
63033;BME280;49121;38.932;-9.018;2023-02-02T09:40:09;111992.50;;;-145.11;75.57
63033;BME280;49121;38.932;-9.018;2023-02-02T09:42:35;111992.50;;;-145.11;75.99
63033;BME280;49121;38.932;-9.018;2023-02-02T09:44:54;111992.50;;;-145.11;76.46
63033;BME280;49121;38.932;-9.018;2023-02-02T09:49:11;111992.50;;;-145.11;77.01
63033;BME280;49121;38.932;-9.018;2023-02-02T09:51:16;111992.50;;;-145.11;76.82
63033;BME280;49121;38.932;-9.018;2023-02-02T09:53:38;111992.50;;;-145.11;75.24
63033;BME280;49121;38.932;-9.018;2023-02-02T09:55:47;111992.50;;;-145.11;75.31
63033;BME280;49121;38.932;-9.018;2023-02-02T09:57:52;111992.50;;;-145.11;75.34
63033;BME280;49121;38.932;-9.018;2023-02-02T09:59:55;111992.50;;;-145.11;75.14
63033;BME280;49121;38.932;-9.018;2023-02-02T10:02:19;111992.50;;;-145.11;73.85
63033;BME280;49121;38.932;-9.018;2023-02-02T10:04:33;111992.50;;;-145.11;72.43
63033;BME280;49121;38.932;-9.018;2023-02-02T10:06:37;111992.50;;;-145.11;70.99
63033;BME280;49121;38.932;-9.018;2023-02-02T10:08:43;111992.50;;;-145.11;71.10
63033;BME280;49121;38.932;-9.018;2023-02-02T10:10:45;111992.50;;;-145.11;70.17
63033;BME280;49121;38.932;-9.018;2023-02-02T10:12:59;111992.50;;;-145.11;69.67
63033;BME280;49121;38.932;-9.018;2023-02-02T10:19:56;111992.50;;;-145.11;68.81
63033;BME280;49121;38.932;-9.018;2023-02-02T10:22:06;111992.50;;;-145.11;68.93
63033;BME280;49121;38.932;-9.018;2023-02-02T10:24:28;111992.50;;;-145.11;69.21
63033;BME280;49121;38.932;-9.018;2023-02-02T10:26:37;111992.50;;;-145.11;68.82
63033;BME280;49121;38.932;-9.018;2023-02-02T10:29:25;111992.50;;;-145.11;67.17
63033;BME280;49121;38.932;-9.018;2023-02-02T10:38:59;111992.50;;;-145.11;62.84
63033;BME280;49121;38.932;-9.018;2023-02-02T10:44:16;111992.50;;;-145.11;61.74
63033;BME280;49121;38.932;-9.018;2023-02-02T10:46:24;111992.50;;;-145.11;59.21
63033;BME280;49121;38.932;-9.018;2023-02-02T10:48:30;111992.50;;;-145.11;59.69
63033;BME280;49121;38.932;-9.018;2023-02-02T10:50:35;111992.50;;;-145.11;59.97
63033;BME280;49121;38.932;-9.018;2023-02-02T10:52:37;111992.50;;;-145.11;59.86
63033;BME280;49121;38.932;-9.018;2023-02-02T11:02:10;111992.50;;;-145.11;59.21
63033;BME280;49121;38.932;-9.018;2023-02-02T11:04:13;111992.50;;;-145.11;58.21
63033;BME280;49121;38.932;-9.018;2023-02-02T11:06:35;111992.50;;;-145.11;57.70
63033;BME280;49121;38.932;-9.018;2023-02-02T11:08:52;111992.50;;;-145.11;57.59
63033;BME280;49121;38.932;-9.018;2023-02-02T11:11:17;111992.50;;;-145.11;57.92
63033;BME280;49121;38.932;-9.018;2023-02-02T11:13:38;111992.50;;;-145.11;58.28
63033;BME280;49121;38.932;-9.018;2023-02-02T11:15:42;111992.50;;;-145.11;58.52
63033;BME280;49121;38.932;-9.018;2023-02-02T11:17:46;111992.50;;;-145.11;56.89
63033;BME280;49121;38.932;-9.018;2023-02-02T11:19:52;111992.50;;;-145.11;57.56
63033;BME280;49121;38.932;-9.018;2023-02-02T11:21:57;111992.50;;;-145.11;57.89
63033;BME280;49121;38.932;-9.018;2023-02-02T11:24:16;111992.50;;;-145.11;57.51
63033;BME280;49121;38.932;-9.018;2023-02-02T11:26:23;111992.50;;;-145.11;56.77
63033;BME280;49121;38.932;-9.018;2023-02-02T11:28:25;111992.50;;;-145.11;57.13
63033;BME280;49121;38.932;-9.018;2023-02-02T11:30:33;111992.50;;;-145.11;56.61
63033;BME280;49121;38.932;-9.018;2023-02-02T11:35:32;111992.50;;;-145.11;57.10
63033;BME280;49121;38.932;-9.018;2023-02-02T11:38:14;111992.50;;;-145.11;55.88
63033;BME280;49121;38.932;-9.018;2023-02-02T11:42:49;111992.50;;;-145.11;55.97
63033;BME280;49121;38.932;-9.018;2023-02-02T11:45:13;111992.50;;;-145.11;56.01
63033;BME280;49121;38.932;-9.018;2023-02-02T11:47:34;111992.50;;;-145.11;56.72
63033;BME280;49121;38.932;-9.018;2023-02-02T11:49:41;111992.50;;;-145.11;56.61
63033;BME280;49121;38.932;-9.018;2023-02-02T11:51:58;111992.50;;;-145.11;56.33
63033;BME280;49121;38.932;-9.018;2023-02-02T11:54:19;111992.50;;;-145.11;56.26
63033;BME280;49121;38.932;-9.018;2023-02-02T11:56:23;111992.50;;;-145.11;56.11
63033;BME280;49121;38.932;-9.018;2023-02-02T11:58:27;111992.50;;;-145.11;56.76
63033;BME280;49121;38.932;-9.018;2023-02-02T12:00:30;111992.50;;;-145.11;55.93
63033;BME280;49121;38.932;-9.018;2023-02-02T12:02:35;111992.50;;;-145.11;56.95
63033;BME280;49121;38.932;-9.018;2023-02-02T12:04:36;111992.50;;;-145.11;56.21
63033;BME280;49121;38.932;-9.018;2023-02-02T12:06:37;111992.50;;;-145.11;56.07
63033;BME280;49121;38.932;-9.018;2023-02-02T12:08:38;111992.50;;;-145.11;55.99
63033;BME280;49121;38.932;-9.018;2023-02-02T12:20:57;111992.50;;;-145.11;56.04
63033;BME280;49121;38.932;-9.018;2023-02-02T12:30:28;111992.50;;;-145.11;54.41
63033;BME280;49121;38.932;-9.018;2023-02-02T12:32:49;111992.50;;;-145.11;54.29
63033;BME280;49121;38.932;-9.018;2023-02-02T12:39:59;111992.50;;;-145.11;54.13
63033;BME280;49121;38.932;-9.018;2023-02-02T12:48:17;111992.50;;;-145.11;52.03
63033;BME280;49121;38.932;-9.018;2023-02-02T12:50:14;111992.50;;;-145.11;51.96
63033;BME280;49121;38.932;-9.018;2023-02-02T13:00:37;111992.50;;;-145.11;50.79
63033;BME280;49121;38.932;-9.018;2023-02-02T13:12:31;111992.50;;;-145.11;51.13
63033;BME280;49121;38.932;-9.018;2023-02-02T13:14:44;111992.50;;;-145.11;49.85
63033;BME280;49121;38.932;-9.018;2023-02-02T13:17:09;111992.50;;;-145.11;49.77
63033;BME280;49121;38.932;-9.018;2023-02-02T13:19:42;111992.50;;;-145.11;50.38
63033;BME280;49121;38.932;-9.018;2023-02-02T13:21:55;111992.50;;;-145.11;51.01
63033;BME280;49121;38.932;-9.018;2023-02-02T13:24:04;111992.50;;;-145.11;50.18
63033;BME280;49121;38.932;-9.018;2023-02-02T13:26:28;111992.50;;;-145.11;49.80
63033;BME280;49121;38.932;-9.018;2023-02-02T13:31:10;111992.50;;;-145.11;50.99
63033;BME280;49121;38.932;-9.018;2023-02-02T13:33:27;111992.50;;;-145.11;50.85
63033;BME280;49121;38.932;-9.018;2023-02-02T13:35:37;111992.50;;;-145.11;51.80
63033;BME280;49121;38.932;-9.018;2023-02-02T13:40:29;111992.50;;;-145.11;50.83
63033;BME280;49121;38.932;-9.018;2023-02-02T13:44:39;111992.50;;;-145.11;51.51